createdAt,value
2023-02-06T00:07:06.478Z,45.62
2023-02-06T00:08:06.454Z,50.14
2023-02-06T00:09:06.435Z,60.75
2023-02-06T00:10:06.410Z,55.61
2023-02-06T00:11:06.369Z,45.89
2023-02-06T00:12:06.335Z,55.03
2023-02-06T00:13:06.306Z,55.09
2023-02-06T00:14:06.270Z,59.74
2023-02-06T00:15:06.248Z,56.61
2023-02-06T00:16:06.251Z,47.08
2023-02-06T00:17:06.179Z,50.74
2023-02-06T00:18:06.146Z,50.13
2023-02-06T00:19:06.108Z,48.14
2023-02-06T00:20:06.086Z,58.89
2023-02-06T00:21:06.063Z,55.20
2023-02-06T00:22:06.026Z,37.78
2023-02-06T00:23:05.995Z,41.83
2023-02-06T00:24:05.977Z,50.90
2023-02-06T00:25:05.941Z,57.69
2023-02-06T00:26:05.909Z,62.02
2023-02-06T00:27:05.874Z,54.18
2023-02-06T00:28:05.909Z,46.68
2023-02-06T00:29:05.825Z,47.11
2023-02-06T00:30:05.845Z,53.31
2023-02-06T00:31:05.949Z,58.46
2023-02-06T00:32:05.721Z,58.90
2023-02-06T00:33:05.691Z,50.52
2023-02-06T00:34:05.665Z,41.23
2023-02-06T00:35:05.632Z,53.99
2023-02-06T00:36:05.597Z,53.86
2023-02-06T00:37:05.581Z,63.34
2023-02-06T00:38:05.542Z,52.82
2023-02-06T00:39:05.518Z,37.26
2023-02-06T00:40:05.469Z,40.96
2023-02-06T00:41:05.453Z,40.14
2023-02-06T00:42:05.416Z,51.21
2023-02-06T00:43:05.371Z,55.82
2023-02-06T00:44:05.335Z,49.28
2023-02-06T00:45:05.299Z,36.60
2023-02-06T00:46:05.305Z,50.94
2023-02-06T00:47:05.233Z,45.80
2023-02-06T00:48:05.203Z,55.56
2023-02-06T00:49:05.186Z,51.39
2023-02-06T00:50:05.146Z,43.83
2023-02-06T00:51:05.123Z,37.14
2023-02-06T00:52:05.082Z,41.10
2023-02-06T00:53:05.049Z,48.01
2023-02-06T00:54:05.024Z,58.20
2023-02-06T00:55:05.012Z,54.17
2023-02-06T00:56:04.976Z,38.39
2023-02-06T00:57:04.945Z,34.71
2023-02-06T00:58:04.923Z,44.13
2023-02-06T00:59:04.885Z,54.02
2023-02-06T01:00:04.854Z,60.56
2023-02-06T01:01:04.844Z,54.43
2023-02-06T01:02:04.809Z,41.83
2023-02-06T01:03:04.793Z,45.38
2023-02-06T01:04:04.732Z,52.98
2023-02-06T01:05:04.699Z,51.23
2023-02-06T01:06:04.678Z,57.56
2023-02-06T01:07:04.650Z,51.16
2023-02-06T01:08:04.796Z,46.85
2023-02-06T01:09:04.585Z,45.01
2023-02-06T01:10:04.549Z,50.88
2023-02-06T01:11:04.526Z,53.12
2023-02-06T01:12:04.500Z,55.45
2023-02-06T01:13:04.452Z,43.19
2023-02-06T01:14:04.422Z,40.75
2023-02-06T01:15:04.400Z,42.53
2023-02-06T01:16:04.365Z,48.17
2023-02-06T01:17:04.325Z,57.40
2023-02-06T01:18:04.286Z,51.76
2023-02-06T01:19:04.262Z,43.57
2023-02-06T01:20:04.222Z,41.28
2023-02-06T01:21:04.196Z,45.92
2023-02-06T01:22:04.178Z,46.59
2023-02-06T01:23:04.139Z,59.29
2023-02-06T01:24:04.097Z,49.64
2023-02-06T01:25:04.085Z,41.32
2023-02-06T01:26:04.042Z,50.01
2023-02-06T01:27:04.023Z,52.87
2023-02-06T01:28:04.063Z,58.53
2023-02-06T01:29:03.948Z,60.64
2023-02-06T01:30:03.972Z,55.16
2023-02-06T01:31:03.961Z,38.14
2023-02-06T01:32:03.862Z,42.34
2023-02-06T01:33:03.820Z,46.92
2023-02-06T01:34:03.799Z,55.02
2023-02-06T01:35:03.763Z,52.10
2023-02-06T01:36:03.748Z,46.85
2023-02-06T01:37:03.715Z,46.46
2023-02-06T01:38:03.683Z,44.21
2023-02-06T01:39:03.648Z,53.68
2023-02-06T01:40:03.628Z,56.23
2023-02-06T01:41:03.589Z,54.57
2023-02-06T01:42:03.579Z,37.76
2023-02-06T01:43:03.545Z,40.94
2023-02-06T01:44:03.513Z,51.71
2023-02-06T01:45:03.511Z,55.45
2023-02-06T01:46:03.482Z,59.91
2023-02-06T01:47:03.444Z,56.67
2023-02-06T01:48:03.412Z,45.71
2023-02-06T01:49:04.605Z,48.23
2023-02-06T01:50:03.518Z,53.43
2023-02-06T01:51:03.492Z,61.90
2023-02-06T01:52:03.474Z,58.26
2023-02-06T01:53:03.437Z,44.86
2023-02-06T01:54:03.412Z,47.18
2023-02-06T01:55:03.384Z,44.98
2023-02-06T01:56:03.356Z,53.88
2023-02-06T01:57:03.334Z,58.16
2023-02-06T01:58:03.297Z,49.06
2023-02-06T02:00:03.256Z,47.97
2023-02-06T04:33:58.722Z,51.72
2023-02-06T04:34:58.686Z,55.61
2023-02-06T04:35:58.660Z,46.30
2023-02-06T04:36:58.631Z,45.44
2023-02-06T04:37:58.612Z,53.49
2023-02-06T04:38:58.588Z,51.70
2023-02-06T04:39:58.556Z,57.65
2023-02-06T04:40:58.521Z,52.82
2023-02-06T04:41:58.483Z,46.35
2023-02-06T04:42:58.469Z,37.14
2023-02-06T04:44:19.494Z,46.23
2023-02-06T04:44:58.472Z,46.78
2023-02-06T04:45:58.450Z,48.67
2023-02-06T04:46:58.342Z,46.86
2023-02-06T04:47:59.513Z,46.58
2023-02-06T04:48:58.291Z,46.50
2023-02-06T04:49:58.256Z,47.62
2023-02-06T04:50:58.227Z,51.69
2023-02-06T04:51:58.198Z,55.84
2023-02-06T04:52:58.165Z,52.30
2023-02-06T04:53:58.132Z,36.66
2023-02-06T04:54:58.107Z,46.09
2023-02-06T04:55:58.066Z,45.22
2023-02-06T04:56:58.033Z,49.43
2023-02-06T04:57:58.000Z,49.95
2023-02-06T04:58:57.980Z,49.69
2023-02-06T04:59:57.943Z,44.48
2023-02-06T05:00:57.909Z,42.35
2023-02-06T05:01:57.887Z,48.61
2023-02-06T05:02:57.846Z,46.31
2023-02-06T05:03:57.816Z,54.30
2023-02-06T08:39:50.213Z,37.07
2023-02-06T08:40:50.125Z,40.31
2023-02-06T08:41:50.105Z,40.42
2023-02-06T08:42:50.051Z,41.06
2023-02-06T08:43:50.018Z,41.82
2023-02-06T08:44:49.963Z,40.63
2023-02-06T08:45:49.961Z,29.59
2023-02-06T08:46:56.188Z,25.34
2023-02-06T08:47:50.931Z,21.02
2023-02-06T08:48:49.823Z,8.28
2023-02-06T08:49:49.788Z,8.15
2023-02-06T08:50:49.772Z,16.89
2023-02-06T08:51:49.690Z,7.99
2023-02-06T08:52:49.652Z,16.93
2023-02-06T08:53:49.621Z,18.65
2023-02-06T08:54:49.575Z,26.03
2023-02-06T08:55:49.493Z,34.09
2023-02-06T08:56:49.481Z,30.20
2023-02-06T08:57:49.394Z,31.40
2023-02-06T08:58:49.366Z,39.52
2023-02-06T08:59:49.319Z,47.92
2023-02-06T09:00:49.277Z,63.29
2023-02-06T09:01:49.292Z,72.15
2023-02-06T09:02:49.223Z,75.53
2023-02-06T09:03:49.131Z,81.80
2023-02-06T09:04:49.136Z,86.03
2023-02-06T09:05:49.024Z,89.87
2023-02-06T09:06:49.071Z,92.65
2023-02-06T09:07:48.937Z,92.87
2023-02-06T09:08:48.894Z,90.20
2023-02-06T09:09:48.870Z,90.53
2023-02-06T09:10:48.826Z,98.18
2023-02-06T09:11:48.767Z,99.02
2023-02-06T09:12:48.725Z,101.68
2023-02-06T09:13:49.444Z,101.81
2023-02-06T09:14:48.648Z,101.95
2023-02-06T09:15:48.636Z,104.12
2023-02-06T09:16:48.547Z,107.77
2023-02-06T09:17:48.506Z,114.95
2023-02-06T09:18:48.464Z,122.49
2023-02-06T09:19:48.400Z,123.13
2023-02-06T09:20:48.376Z,119.51
2023-02-06T09:21:49.230Z,118.67
2023-02-06T09:22:48.308Z,126.35
2023-02-06T09:23:48.313Z,127.51
2023-02-06T09:24:48.234Z,136.68
2023-02-06T09:25:48.092Z,138.57
2023-02-06T09:26:59.402Z,127.32
2023-02-06T09:27:48.998Z,127.53
2023-02-06T09:28:47.927Z,124.41
2023-02-06T09:29:47.875Z,111.95
2023-02-06T09:30:47.931Z,101.61
2023-02-06T09:31:47.940Z,88.25
2023-02-06T11:23:41.020Z,142.45
2023-02-06T11:35:39.919Z,170.68
2023-02-06T11:36:39.329Z,176.07
2023-02-06T11:37:39.204Z,175.12
2023-02-06T11:38:39.024Z,173.87
2023-02-06T11:39:38.872Z,171.89
2023-02-06T11:40:38.965Z,174.30
2023-02-06T11:41:38.571Z,170.50
2023-02-06T11:42:38.421Z,166.45
2023-02-06T11:43:38.247Z,165.73
2023-02-06T11:44:38.177Z,151.24
2023-02-06T11:45:38.300Z,144.18
2023-02-06T12:00:35.627Z,105.65
2023-02-06T12:01:35.486Z,112.09
2023-02-06T12:02:35.537Z,106.21
2023-02-06T12:03:35.235Z,105.80
2023-02-06T12:04:35.029Z,103.96
2023-02-06T12:05:35.286Z,106.88
2023-02-06T12:06:34.717Z,102.94
2023-02-06T12:07:34.571Z,101.33
2023-02-06T12:08:34.431Z,96.33
2023-02-06T12:09:34.283Z,93.16
2023-02-06T12:10:34.196Z,92.05
2023-02-06T12:11:34.062Z,90.38
2023-02-06T12:12:33.936Z,85.92
2023-02-06T12:13:33.809Z,92.27
2023-02-06T12:14:33.659Z,87.04
2023-02-06T12:15:45.901Z,83.69
2023-02-06T12:16:34.510Z,83.47
2023-02-06T12:17:33.340Z,72.11
2023-02-06T12:18:33.239Z,80.90
2023-02-06T12:19:33.129Z,87.37
2023-02-06T12:20:33.009Z,81.36
2023-02-06T12:21:32.908Z,80.51
2023-02-06T12:22:32.766Z,77.88
2023-02-06T12:23:32.658Z,72.56
2023-02-06T12:24:32.544Z,76.50
2023-02-06T12:25:32.472Z,77.75
2023-02-06T12:26:32.227Z,76.82
2023-02-06T12:27:32.093Z,78.04
2023-02-06T12:28:31.975Z,73.88
2023-02-06T12:29:31.780Z,69.88
2023-02-06T12:30:31.640Z,83.18
2023-02-06T12:31:31.565Z,79.35
2023-02-06T12:32:31.304Z,79.13
2023-02-06T12:33:31.166Z,78.05
2023-02-06T12:34:30.998Z,78.14
2023-02-06T12:35:30.865Z,79.40
2023-02-06T12:36:30.701Z,82.01
2023-02-06T12:37:30.580Z,87.54
2023-02-06T12:38:30.401Z,88.88
2023-02-06T12:39:30.283Z,87.31
2023-02-06T12:40:30.146Z,87.47
2023-02-06T12:41:30.056Z,89.15
2023-02-06T12:42:29.924Z,86.78
2023-02-06T12:43:29.834Z,85.66
2023-02-06T12:44:29.728Z,87.50
2023-02-06T12:45:29.654Z,88.34
2023-02-06T12:46:29.602Z,87.23
2023-02-06T12:47:29.458Z,88.37
2023-02-06T12:48:29.374Z,86.91
2023-02-06T12:49:29.279Z,89.05
2023-02-06T12:50:29.185Z,87.20
2023-02-06T12:51:29.111Z,85.57
2023-02-06T12:52:29.022Z,89.58
2023-02-06T12:53:28.942Z,89.60
2023-02-06T12:54:28.853Z,93.05
2023-02-06T12:55:28.775Z,90.64
2023-02-06T12:56:28.725Z,93.64
2023-02-06T12:57:28.641Z,92.06
2023-02-06T12:58:28.598Z,84.10
2023-02-06T12:59:28.476Z,90.41
2023-02-06T13:00:28.404Z,90.94
2023-02-06T13:01:32.998Z,91.54
2023-02-06T13:02:29.354Z,91.21
2023-02-06T13:03:28.241Z,90.79
2023-02-06T13:04:28.132Z,91.78
2023-02-06T13:05:28.079Z,92.84
2023-02-06T13:06:27.999Z,94.69
2023-02-06T13:07:27.945Z,93.55
2023-02-06T13:08:27.890Z,95.67
2023-02-06T13:09:27.805Z,92.65
2023-02-06T13:10:27.747Z,91.55
2023-02-06T13:11:27.687Z,90.77
2023-02-06T13:12:27.613Z,93.13
2023-02-06T13:13:27.548Z,93.08
2023-02-06T13:14:27.484Z,88.87
2023-02-06T13:15:27.422Z,91.93
2023-02-06T13:16:27.358Z,96.20
2023-02-06T13:17:27.280Z,94.56
2023-02-06T13:18:27.228Z,90.79
2023-02-06T13:19:27.148Z,95.20
2023-02-06T13:20:27.071Z,93.22
2023-02-06T13:21:27.023Z,95.85
2023-02-06T13:22:26.954Z,96.01
2023-02-06T13:23:26.881Z,97.71
2023-02-06T13:24:26.816Z,97.80
2023-02-06T13:25:26.755Z,97.96
2023-02-06T13:26:26.681Z,98.29
2023-02-06T13:27:26.625Z,95.88
2023-02-06T13:28:26.595Z,100.59
2023-02-06T13:29:26.515Z,98.91
2023-02-06T13:30:26.502Z,95.67
2023-02-06T13:31:26.505Z,100.37
2023-02-06T13:32:26.324Z,97.28
2023-02-06T13:33:26.273Z,97.48
2023-02-06T13:34:26.245Z,97.45
2023-02-06T13:35:26.158Z,100.22
2023-02-06T13:36:26.086Z,99.26
2023-02-06T13:37:26.055Z,97.84
2023-02-06T13:38:25.965Z,99.18
2023-02-06T13:39:25.923Z,100.11
2023-02-06T13:40:25.846Z,99.97
2023-02-06T13:41:25.794Z,98.78
2023-02-06T13:42:25.735Z,101.25
2023-02-06T13:43:25.673Z,100.83
2023-02-06T13:44:25.621Z,101.03
2023-02-06T13:45:25.555Z,100.11
2023-02-06T13:46:25.550Z,100.64
2023-02-06T13:47:25.442Z,99.30
2023-02-06T13:48:25.383Z,101.69
2023-02-06T13:49:25.357Z,101.08
2023-02-06T13:50:25.270Z,101.04
2023-02-06T13:51:25.196Z,99.76
2023-02-06T13:52:25.169Z,97.23
2023-02-06T13:53:25.093Z,97.67
2023-02-06T13:54:25.030Z,98.74
2023-02-06T13:55:24.969Z,98.01
2023-02-06T13:56:24.939Z,96.68
2023-02-06T13:57:24.862Z,98.12
2023-02-06T13:58:24.789Z,96.81
2023-02-06T13:59:24.726Z,95.33
2023-02-06T14:00:24.692Z,96.50
2023-02-06T14:01:24.706Z,93.93
2023-02-06T14:02:24.563Z,98.61
2023-02-06T14:03:24.490Z,96.50
2023-02-06T14:04:25.165Z,96.13
2023-02-06T14:05:24.362Z,96.96
2023-02-06T14:06:24.307Z,94.83
2023-02-06T14:07:24.243Z,94.75
2023-02-06T14:08:24.172Z,94.79
2023-02-06T14:09:24.131Z,95.74
2023-02-06T14:10:24.081Z,95.06
2023-02-06T14:11:24.025Z,93.13
2023-02-06T14:12:23.946Z,95.81
2023-02-06T14:13:23.892Z,94.59
2023-02-06T14:14:23.837Z,93.31
2023-02-06T14:15:23.782Z,91.09
2023-02-06T14:16:23.790Z,92.04
2023-02-06T14:17:23.659Z,93.01
2023-02-06T14:18:23.608Z,94.69
2023-02-06T14:19:23.538Z,93.38
2023-02-06T14:20:23.491Z,93.40
2023-02-06T14:21:23.457Z,94.65
2023-02-06T14:22:24.348Z,91.85
2023-02-06T14:23:25.459Z,94.55
2023-02-06T14:24:23.278Z,91.74
2023-02-06T14:25:23.224Z,94.18
2023-02-06T14:26:23.173Z,96.10
2023-02-06T14:27:23.091Z,92.97
2023-02-06T14:28:23.087Z,93.56
2023-02-06T14:29:22.993Z,94.65
2023-02-06T14:30:22.932Z,92.58
2023-02-06T14:31:22.934Z,87.50
2023-02-06T14:32:22.829Z,92.69
2023-02-06T14:33:22.797Z,91.49
2023-02-06T14:34:22.718Z,89.74
2023-02-06T14:35:22.678Z,93.25
2023-02-06T14:36:22.608Z,94.59
2023-02-06T14:37:22.561Z,92.18
2023-02-06T14:38:22.491Z,91.50
2023-02-06T14:39:22.432Z,92.24
2023-02-06T14:40:22.406Z,95.97
2023-02-06T14:41:22.339Z,90.06
2023-02-06T14:42:22.262Z,96.81
2023-02-06T14:43:22.205Z,92.21
2023-02-06T14:44:22.170Z,92.51
2023-02-06T14:45:22.102Z,92.57
2023-02-06T14:46:22.077Z,90.51
2023-02-06T14:47:21.971Z,92.80
2023-02-06T14:48:21.913Z,91.02
2023-02-06T14:49:21.845Z,87.32
2023-02-06T14:50:21.823Z,91.46
2023-02-06T14:51:21.733Z,95.43
2023-02-06T14:52:21.678Z,90.35
2023-02-06T14:53:21.646Z,87.79
2023-02-06T14:54:21.565Z,95.29
2023-02-06T14:55:21.516Z,93.56
2023-02-06T14:56:22.533Z,94.31
2023-02-06T14:57:21.478Z,92.35
2023-02-06T14:58:21.369Z,92.97
2023-02-06T14:59:21.300Z,95.04
2023-02-06T15:00:21.259Z,96.07
2023-02-06T15:01:21.207Z,95.66
2023-02-06T15:02:21.132Z,96.83
2023-02-06T15:03:21.426Z,95.49
2023-02-06T15:04:21.019Z,95.07
2023-02-06T15:05:20.974Z,92.33
2023-02-06T15:06:20.941Z,94.61
2023-02-06T15:07:20.888Z,94.25
2023-02-06T15:08:20.804Z,94.90
2023-02-06T15:09:20.761Z,97.20
2023-02-06T15:10:20.707Z,91.63
2023-02-06T15:11:20.653Z,97.64
2023-02-06T15:12:20.596Z,98.12
2023-02-06T15:13:20.552Z,94.29
2023-02-06T15:14:20.482Z,96.69
2023-02-06T15:15:20.448Z,98.13
2023-02-06T15:16:20.419Z,99.17
2023-02-06T15:17:20.343Z,101.52
2023-02-06T15:18:20.283Z,100.46
2023-02-06T15:19:20.229Z,99.68
2023-02-06T15:20:20.178Z,98.71
2023-02-06T15:21:20.122Z,100.61
2023-02-06T15:22:20.057Z,101.75
2023-02-06T15:23:20.013Z,98.94
2023-02-06T15:24:19.971Z,99.20
2023-02-06T15:25:19.912Z,99.22
2023-02-06T15:26:19.873Z,102.30
2023-02-06T15:27:19.804Z,102.41
2023-02-06T15:28:19.832Z,100.25
2023-02-06T15:29:19.709Z,101.83
2023-02-06T15:30:19.655Z,101.75
2023-02-06T15:31:19.630Z,103.56
2023-02-06T15:32:19.546Z,100.70
2023-02-06T15:33:19.472Z,99.82
2023-02-06T15:34:19.423Z,102.51
2023-02-06T15:35:19.381Z,101.07
2023-02-06T15:36:19.306Z,98.24
2023-02-06T15:37:19.270Z,101.68
2023-02-06T15:38:19.205Z,100.67
2023-02-06T15:39:19.171Z,102.22
2023-02-06T15:40:19.100Z,100.31
2023-02-06T15:41:19.092Z,102.21
2023-02-06T15:42:19.002Z,102.80
2023-02-06T15:43:18.951Z,102.68
2023-02-06T15:44:18.897Z,101.15
2023-02-06T15:45:18.834Z,102.93
2023-02-06T15:46:18.806Z,102.38
2023-02-06T15:47:18.755Z,100.72
2023-02-06T15:48:18.701Z,100.35
2023-02-06T15:49:18.629Z,102.33
2023-02-06T15:50:18.605Z,104.14
2023-02-06T15:51:18.534Z,98.81
2023-02-06T15:52:18.476Z,103.92
2023-02-06T15:53:18.436Z,101.92
2023-02-06T15:54:18.391Z,104.36
2023-02-06T15:55:18.329Z,101.69
2023-02-06T15:56:18.275Z,101.41
2023-02-06T15:57:18.236Z,101.68
2023-02-06T15:58:18.183Z,103.69
2023-02-06T15:59:18.144Z,103.79
2023-02-06T16:00:18.102Z,102.89
2023-02-06T16:01:18.118Z,103.61
2023-02-06T16:02:18.007Z,101.64
2023-02-06T16:03:17.932Z,104.35
2023-02-06T16:04:17.915Z,104.19
2023-02-06T16:05:17.859Z,103.51
2023-02-06T19:29:08.893Z,106.47
2023-02-06T19:30:08.864Z,101.38
2023-02-06T19:31:08.837Z,100.70
2023-02-06T19:32:08.766Z,103.55
2023-02-06T19:33:08.741Z,105.92
2023-02-06T19:34:08.697Z,104.21
2023-02-06T19:35:08.657Z,104.43
2023-02-06T19:36:08.622Z,104.54
2023-02-06T19:37:08.567Z,109.16
2023-02-06T19:38:08.524Z,107.59
2023-02-06T19:39:08.490Z,104.05
2023-02-06T19:40:08.454Z,105.09
2023-02-06T19:41:08.413Z,104.66
2023-02-06T19:42:08.366Z,100.59
2023-02-06T19:43:08.325Z,102.50
2023-02-06T19:44:08.290Z,106.11
2023-02-06T19:45:08.256Z,100.01
2023-02-06T19:46:08.204Z,101.64
2023-02-06T19:47:08.158Z,103.59
2023-02-06T19:48:08.145Z,105.76
2023-02-06T19:49:08.088Z,102.28
2023-02-06T19:50:08.038Z,107.61
2023-02-06T19:51:08.008Z,105.17
2023-02-06T19:52:07.969Z,104.56
2023-02-06T19:53:07.947Z,105.77
2023-02-06T19:54:07.888Z,100.02
2023-02-06T19:55:07.847Z,103.39
